sensor_id;sensor_type;location;lat;lon;timestamp;temperature;humidity
9448;DHT22;4762;48.128;11.376;2023-01-19T00:00:18;-3275.20;91.30
9448;DHT22;4762;48.128;11.376;2023-01-19T00:02:20;-3275.30;91.60
9448;DHT22;4762;48.128;11.376;2023-01-19T00:04:23;-3275.10;91.70
9448;DHT22;4762;48.128;11.376;2023-01-19T00:06:25;-3275.20;91.80
9448;DHT22;4762;48.128;11.376;2023-01-19T00:08:27;-3275.10;92.00
9448;DHT22;4762;48.128;11.376;2023-01-19T00:10:30;-3275.20;92.00
9448;DHT22;4762;48.128;11.376;2023-01-19T00:12:32;-3275.10;91.90
9448;DHT22;4762;48.128;11.376;2023-01-19T00:14:34;-3275.30;91.70
9448;DHT22;4762;48.128;11.376;2023-01-19T00:16:36;-3275.20;92.30
9448;DHT22;4762;48.128;11.376;2023-01-19T00:18:39;-3275.10;92.20
9448;DHT22;4762;48.128;11.376;2023-01-19T00:20:41;-3275.30;92.30
9448;DHT22;4762;48.128;11.376;2023-01-19T00:22:43;-3275.20;92.20
9448;DHT22;4762;48.128;11.376;2023-01-19T00:24:46;-3275.30;92.20
9448;DHT22;4762;48.128;11.376;2023-01-19T00:26:48;-3275.20;92.10
9448;DHT22;4762;48.128;11.376;2023-01-19T00:28:50;-3275.30;92.10
9448;DHT22;4762;48.128;11.376;2023-01-19T00:30:53;-3275.10;91.90
9448;DHT22;4762;48.128;11.376;2023-01-19T00:32:55;-3275.10;92.20
9448;DHT22;4762;48.128;11.376;2023-01-19T00:34:58;-3275.30;92.00
9448;DHT22;4762;48.128;11.376;2023-01-19T00:37:00;-3275.20;91.90
9448;DHT22;4762;48.128;11.376;2023-01-19T00:39:02;-3275.20;92.10
9448;DHT22;4762;48.128;11.376;2023-01-19T00:41:05;-3275.00;92.00
9448;DHT22;4762;48.128;11.376;2023-01-19T00:43:07;-3275.20;92.00
9448;DHT22;4762;48.128;11.376;2023-01-19T00:45:11;-3275.10;92.10
9448;DHT22;4762;48.128;11.376;2023-01-19T00:47:12;-3275.20;92.10
9448;DHT22;4762;48.128;11.376;2023-01-19T00:49:14;-3275.10;91.90
9448;DHT22;4762;48.128;11.376;2023-01-19T00:51:16;-3275.10;92.10
9448;DHT22;4762;48.128;11.376;2023-01-19T00:53:19;-3275.10;92.30
9448;DHT22;4762;48.128;11.376;2023-01-19T00:55:21;-3275.00;92.30
9448;DHT22;4762;48.128;11.376;2023-01-19T00:57:23;-3275.00;92.50
9448;DHT22;4762;48.128;11.376;2023-01-19T00:59:25;-3275.10;92.60
9448;DHT22;4762;48.128;11.376;2023-01-19T01:01:28;-3275.10;92.60
9448;DHT22;4762;48.128;11.376;2023-01-19T01:03:30;-3274.90;92.60
9448;DHT22;4762;48.128;11.376;2023-01-19T01:05:32;-3274.90;92.80
9448;DHT22;4762;48.128;11.376;2023-01-19T01:07:34;-3274.90;92.80
9448;DHT22;4762;48.128;11.376;2023-01-19T01:09:41;-3274.90;92.50
9448;DHT22;4762;48.128;11.376;2023-01-19T01:11:44;-3275.00;92.70
9448;DHT22;4762;48.128;11.376;2023-01-19T01:13:46;-3275.00;92.50
9448;DHT22;4762;48.128;11.376;2023-01-19T01:15:49;-3274.90;92.30
9448;DHT22;4762;48.128;11.376;2023-01-19T01:17:50;-3275.00;92.30
9448;DHT22;4762;48.128;11.376;2023-01-19T01:19:53;-3275.10;92.40
9448;DHT22;4762;48.128;11.376;2023-01-19T01:21:55;-3275.00;92.30
9448;DHT22;4762;48.128;11.376;2023-01-19T01:23:57;-3274.90;92.50
9448;DHT22;4762;48.128;11.376;2023-01-19T01:26:00;-3274.90;92.70
9448;DHT22;4762;48.128;11.376;2023-01-19T01:28:02;-3274.90;92.90
9448;DHT22;4762;48.128;11.376;2023-01-19T01:30:05;-3274.80;92.90
9448;DHT22;4762;48.128;11.376;2023-01-19T01:32:08;-3274.70;92.80
9448;DHT22;4762;48.128;11.376;2023-01-19T01:34:11;-3274.80;92.80
9448;DHT22;4762;48.128;11.376;2023-01-19T01:36:13;-3274.80;92.80
9448;DHT22;4762;48.128;11.376;2023-01-19T01:38:15;-3274.80;92.70
9448;DHT22;4762;48.128;11.376;2023-01-19T01:40:18;-3274.60;92.80
9448;DHT22;4762;48.128;11.376;2023-01-19T01:42:23;-3274.60;92.80
9448;DHT22;4762;48.128;11.376;2023-01-19T01:46:36;-3274.70;93.30
9448;DHT22;4762;48.128;11.376;2023-01-19T01:48:38;-3274.70;93.40
9448;DHT22;4762;48.128;11.376;2023-01-19T01:50:43;-3274.70;93.10
9448;DHT22;4762;48.128;11.376;2023-01-19T01:52:45;-3274.60;93.20
9448;DHT22;4762;48.128;11.376;2023-01-19T01:54:46;-3274.70;93.30
9448;DHT22;4762;48.128;11.376;2023-01-19T01:56:50;-3274.70;93.20
9448;DHT22;4762;48.128;11.376;2023-01-19T01:58:51;-3274.50;93.30
9448;DHT22;4762;48.128;11.376;2023-01-19T02:00:54;-3274.60;93.40
9448;DHT22;4762;48.128;11.376;2023-01-19T02:03:01;-3274.60;94.00
9448;DHT22;4762;48.128;11.376;2023-01-19T02:05:06;-3274.60;93.70
9448;DHT22;4762;48.128;11.376;2023-01-19T02:07:07;-3274.60;93.50
9448;DHT22;4762;48.128;11.376;2023-01-19T02:09:15;-3274.70;93.60
9448;DHT22;4762;48.128;11.376;2023-01-19T02:11:23;-3274.80;93.40
9448;DHT22;4762;48.128;11.376;2023-01-19T02:13:32;-3274.60;93.50
9448;DHT22;4762;48.128;11.376;2023-01-19T02:15:33;-3274.60;93.00
9448;DHT22;4762;48.128;11.376;2023-01-19T02:17:35;-3274.80;93.40
9448;DHT22;4762;48.128;11.376;2023-01-19T02:19:39;-3274.60;93.10
9448;DHT22;4762;48.128;11.376;2023-01-19T02:21:48;-3274.80;93.10
9448;DHT22;4762;48.128;11.376;2023-01-19T02:23:48;-3274.80;93.20
9448;DHT22;4762;48.128;11.376;2023-01-19T02:28:16;-3274.70;93.30
9448;DHT22;4762;48.128;11.376;2023-01-19T02:30:19;-3274.60;93.50
9448;DHT22;4762;48.128;11.376;2023-01-19T02:32:21;-3274.60;93.50
9448;DHT22;4762;48.128;11.376;2023-01-19T02:34:23;-3274.70;93.80
9448;DHT22;4762;48.128;11.376;2023-01-19T02:36:31;-3274.50;93.90
9448;DHT22;4762;48.128;11.376;2023-01-19T02:38:32;-3274.70;93.80
9448;DHT22;4762;48.128;11.376;2023-01-19T02:40:34;-3274.70;93.70
9448;DHT22;4762;48.128;11.376;2023-01-19T02:42:38;-3274.50;93.80
9448;DHT22;4762;48.128;11.376;2023-01-19T02:44:39;-3274.60;93.80
9448;DHT22;4762;48.128;11.376;2023-01-19T02:46:41;-3274.40;93.90
9448;DHT22;4762;48.128;11.376;2023-01-19T02:48:44;-3274.50;94.00
9448;DHT22;4762;48.128;11.376;2023-01-19T02:50:48;-3274.40;94.20
9448;DHT22;4762;48.128;11.376;2023-01-19T02:52:48;-3274.60;93.90
9448;DHT22;4762;48.128;11.376;2023-01-19T02:55:00;-3274.50;93.90
9448;DHT22;4762;48.128;11.376;2023-01-19T02:57:09;-3274.50;94.10
9448;DHT22;4762;48.128;11.376;2023-01-19T02:59:13;-3274.30;94.40
9448;DHT22;4762;48.128;11.376;2023-01-19T03:01:28;-3274.30;94.20
9448;DHT22;4762;48.128;11.376;2023-01-19T03:03:31;-3274.50;94.40
9448;DHT22;4762;48.128;11.376;2023-01-19T03:06:45;-3274.30;94.40
9448;DHT22;4762;48.128;11.376;2023-01-19T03:08:07;-3274.30;94.20
9448;DHT22;4762;48.128;11.376;2023-01-19T03:10:19;-3274.20;94.10
9448;DHT22;4762;48.128;11.376;2023-01-19T03:12:30;-3274.20;94.30
9448;DHT22;4762;48.128;11.376;2023-01-19T03:14:32;-3274.20;94.20
9448;DHT22;4762;48.128;11.376;2023-01-19T03:16:38;-3274.30;94.20
9448;DHT22;4762;48.128;11.376;2023-01-19T03:18:38;-3274.20;94.40
9448;DHT22;4762;48.128;11.376;2023-01-19T03:20:40;-3274.20;94.10
9448;DHT22;4762;48.128;11.376;2023-01-19T03:22:57;-3274.20;94.30
9448;DHT22;4762;48.128;11.376;2023-01-19T03:24:58;-3274.20;94.10
9448;DHT22;4762;48.128;11.376;2023-01-19T03:27:01;-3274.20;94.20
9448;DHT22;4762;48.128;11.376;2023-01-19T03:29:02;-3274.10;94.20
9448;DHT22;4762;48.128;11.376;2023-01-19T03:31:19;-3274.10;94.10
9448;DHT22;4762;48.128;11.376;2023-01-19T03:33:28;-3274.10;94.00
9448;DHT22;4762;48.128;11.376;2023-01-19T03:35:30;-3274.10;94.00
9448;DHT22;4762;48.128;11.376;2023-01-19T03:37:32;-3274.10;94.10
9448;DHT22;4762;48.128;11.376;2023-01-19T03:39:34;-3274.00;94.10
9448;DHT22;4762;48.128;11.376;2023-01-19T03:41:36;-3274.10;94.20
9448;DHT22;4762;48.128;11.376;2023-01-19T03:43:39;-3273.90;94.40
9448;DHT22;4762;48.128;11.376;2023-01-19T03:45:41;-3274.00;94.30
9448;DHT22;4762;48.128;11.376;2023-01-19T03:47:43;-3274.00;94.30
9448;DHT22;4762;48.128;11.376;2023-01-19T03:49:45;-3273.90;94.30
9448;DHT22;4762;48.128;11.376;2023-01-19T03:51:48;-3274.10;94.60
9448;DHT22;4762;48.128;11.376;2023-01-19T03:53:50;-3274.00;94.60
9448;DHT22;4762;48.128;11.376;2023-01-19T03:55:52;-3274.00;94.70
9448;DHT22;4762;48.128;11.376;2023-01-19T03:57:54;-3274.10;94.70
9448;DHT22;4762;48.128;11.376;2023-01-19T03:59:57;-3274.10;94.50
9448;DHT22;4762;48.128;11.376;2023-01-19T04:01:59;-3274.20;94.40
9448;DHT22;4762;48.128;11.376;2023-01-19T04:04:01;-3274.10;94.30
9448;DHT22;4762;48.128;11.376;2023-01-19T04:06:03;-3274.10;94.30
9448;DHT22;4762;48.128;11.376;2023-01-19T04:08:06;-3274.10;94.00
9448;DHT22;4762;48.128;11.376;2023-01-19T04:10:09;-3274.30;94.00
9448;DHT22;4762;48.128;11.376;2023-01-19T04:12:11;-3274.20;93.80
9448;DHT22;4762;48.128;11.376;2023-01-19T04:14:13;-3274.00;93.70
9448;DHT22;4762;48.128;11.376;2023-01-19T04:16:16;-3273.80;93.60
9448;DHT22;4762;48.128;11.376;2023-01-19T04:18:18;-3274.00;93.60
9448;DHT22;4762;48.128;11.376;2023-01-19T04:20:20;-3273.80;93.60
9448;DHT22;4762;48.128;11.376;2023-01-19T04:22:23;-3273.60;93.50
9448;DHT22;4762;48.128;11.376;2023-01-19T04:24:25;-3273.70;93.60
9448;DHT22;4762;48.128;11.376;2023-01-19T04:26:27;-3273.60;93.50
9448;DHT22;4762;48.128;11.376;2023-01-19T04:28:30;-3273.60;93.10
9448;DHT22;4762;48.128;11.376;2023-01-19T04:30:32;-3273.60;93.30
9448;DHT22;4762;48.128;11.376;2023-01-19T04:32:34;-3273.50;92.90
9448;DHT22;4762;48.128;11.376;2023-01-19T04:34:37;-3273.40;92.80
9448;DHT22;4762;48.128;11.376;2023-01-19T04:36:39;-3273.30;92.90
9448;DHT22;4762;48.128;11.376;2023-01-19T04:41:02;-3273.30;93.20
9448;DHT22;4762;48.128;11.376;2023-01-19T04:43:04;-3273.30;93.20
9448;DHT22;4762;48.128;11.376;2023-01-19T04:45:07;-3273.30;93.20
9448;DHT22;4762;48.128;11.376;2023-01-19T04:47:09;-3273.20;93.30
9448;DHT22;4762;48.128;11.376;2023-01-19T04:49:12;-3273.20;93.30
9448;DHT22;4762;48.128;11.376;2023-01-19T04:51:14;-3273.20;93.10
9448;DHT22;4762;48.128;11.376;2023-01-19T04:53:16;-3273.10;93.40
9448;DHT22;4762;48.128;11.376;2023-01-19T04:55:18;-3273.20;93.40
9448;DHT22;4762;48.128;11.376;2023-01-19T04:57:21;-3273.20;93.30
9448;DHT22;4762;48.128;11.376;2023-01-19T04:59:23;-3273.20;93.40
9448;DHT22;4762;48.128;11.376;2023-01-19T05:01:25;-3273.10;93.40
9448;DHT22;4762;48.128;11.376;2023-01-19T05:03:27;-3273.00;93.50
9448;DHT22;4762;48.128;11.376;2023-01-19T05:05:30;-3273.00;93.20
9448;DHT22;4762;48.128;11.376;2023-01-19T05:07:32;-3272.90;93.50
9448;DHT22;4762;48.128;11.376;2023-01-19T05:09:34;-3272.90;93.40
9448;DHT22;4762;48.128;11.376;2023-01-19T05:11:37;-3272.80;93.30
9448;DHT22;4762;48.128;11.376;2023-01-19T05:13:39;-3272.70;93.70
9448;DHT22;4762;48.128;11.376;2023-01-19T05:15:41;-3272.70;93.60
9448;DHT22;4762;48.128;11.376;2023-01-19T05:17:43;-3272.80;94.00
9448;DHT22;4762;48.128;11.376;2023-01-19T05:19:46;-3272.70;93.70
9448;DHT22;4762;48.128;11.376;2023-01-19T05:21:48;-3272.80;94.50
9448;DHT22;4762;48.128;11.376;2023-01-19T05:23:50;-3272.80;94.20
9448;DHT22;4762;48.128;11.376;2023-01-19T05:25:52;-3272.80;94.10
9448;DHT22;4762;48.128;11.376;2023-01-19T05:27:55;-3272.80;94.30
9448;DHT22;4762;48.128;11.376;2023-01-19T05:29:57;-3272.80;93.90
9448;DHT22;4762;48.128;11.376;2023-01-19T05:32:00;-3272.80;94.00
9448;DHT22;4762;48.128;11.376;2023-01-19T05:34:02;-3272.70;94.30
9448;DHT22;4762;48.128;11.376;2023-01-19T05:36:04;-3272.70;94.40
9448;DHT22;4762;48.128;11.376;2023-01-19T05:38:06;-3272.70;94.70
9448;DHT22;4762;48.128;11.376;2023-01-19T05:40:09;-3272.70;94.40
9448;DHT22;4762;48.128;11.376;2023-01-19T05:42:12;-3272.70;94.20
9448;DHT22;4762;48.128;11.376;2023-01-19T05:44:14;-3272.70;94.20
9448;DHT22;4762;48.128;11.376;2023-01-19T05:46:16;-3272.70;94.30
9448;DHT22;4762;48.128;11.376;2023-01-19T05:48:18;-3272.70;94.30
9448;DHT22;4762;48.128;11.376;2023-01-19T05:50:21;-3272.70;94.40
9448;DHT22;4762;48.128;11.376;2023-01-19T05:52:23;-3272.70;94.50
9448;DHT22;4762;48.128;11.376;2023-01-19T05:54:26;-3272.70;94.20
9448;DHT22;4762;48.128;11.376;2023-01-19T05:56:29;-3272.70;94.40
9448;DHT22;4762;48.128;11.376;2023-01-19T05:58:31;-3272.60;94.60
9448;DHT22;4762;48.128;11.376;2023-01-19T06:00:33;-3272.60;94.60
9448;DHT22;4762;48.128;11.376;2023-01-19T06:02:38;-3272.70;94.50
9448;DHT22;4762;48.128;11.376;2023-01-19T06:04:40;-3272.70;94.60
9448;DHT22;4762;48.128;11.376;2023-01-19T06:06:42;-3272.70;94.40
9448;DHT22;4762;48.128;11.376;2023-01-19T06:08:45;-3272.70;94.20
9448;DHT22;4762;48.128;11.376;2023-01-19T06:10:47;-3272.70;94.10
9448;DHT22;4762;48.128;11.376;2023-01-19T06:12:52;-3272.60;94.00
9448;DHT22;4762;48.128;11.376;2023-01-19T06:14:55;-3272.60;93.90
9448;DHT22;4762;48.128;11.376;2023-01-19T06:16:57;-3272.60;93.70
9448;DHT22;4762;48.128;11.376;2023-01-19T06:18:59;-3272.70;93.80
9448;DHT22;4762;48.128;11.376;2023-01-19T06:21:02;-3272.60;93.60
9448;DHT22;4762;48.128;11.376;2023-01-19T06:23:04;-3272.60;93.50
9448;DHT22;4762;48.128;11.376;2023-01-19T06:25:06;-3272.50;93.80
9448;DHT22;4762;48.128;11.376;2023-01-19T06:27:09;-3272.60;93.60
9448;DHT22;4762;48.128;11.376;2023-01-19T06:29:11;-3272.50;93.60
9448;DHT22;4762;48.128;11.376;2023-01-19T06:31:13;-3272.50;93.50
9448;DHT22;4762;48.128;11.376;2023-01-19T06:33:15;-3272.50;93.40
9448;DHT22;4762;48.128;11.376;2023-01-19T06:35:18;-3272.50;93.60
9448;DHT22;4762;48.128;11.376;2023-01-19T06:37:20;-3272.50;93.30
9448;DHT22;4762;48.128;11.376;2023-01-19T06:39:22;-3272.50;93.30
9448;DHT22;4762;48.128;11.376;2023-01-19T06:41:24;-3272.40;93.40
9448;DHT22;4762;48.128;11.376;2023-01-19T06:43:27;-3272.50;93.40
9448;DHT22;4762;48.128;11.376;2023-01-19T06:45:29;-3272.50;93.30
9448;DHT22;4762;48.128;11.376;2023-01-19T06:47:31;-3272.50;93.00
9448;DHT22;4762;48.128;11.376;2023-01-19T06:49:33;-3272.40;93.30
9448;DHT22;4762;48.128;11.376;2023-01-19T06:51:36;-3272.30;93.10
9448;DHT22;4762;48.128;11.376;2023-01-19T06:53:38;-3272.30;93.50
9448;DHT22;4762;48.128;11.376;2023-01-19T06:55:40;-3272.30;93.20
9448;DHT22;4762;48.128;11.376;2023-01-19T06:57:42;-3272.30;93.70
9448;DHT22;4762;48.128;11.376;2023-01-19T06:59:45;-3272.30;93.70
9448;DHT22;4762;48.128;11.376;2023-01-19T07:01:47;-3272.30;93.50
9448;DHT22;4762;48.128;11.376;2023-01-19T07:03:49;-3272.40;93.40
9448;DHT22;4762;48.128;11.376;2023-01-19T07:05:52;-3272.30;93.50
9448;DHT22;4762;48.128;11.376;2023-01-19T07:07:54;-3272.40;93.30
9448;DHT22;4762;48.128;11.376;2023-01-19T07:09:56;-3272.40;93.30
9448;DHT22;4762;48.128;11.376;2023-01-19T07:11:58;-3272.40;93.20
9448;DHT22;4762;48.128;11.376;2023-01-19T07:14:01;-3272.40;93.00
9448;DHT22;4762;48.128;11.376;2023-01-19T07:16:05;-3272.50;93.00
9448;DHT22;4762;48.128;11.376;2023-01-19T07:18:06;-3272.40;92.70
9448;DHT22;4762;48.128;11.376;2023-01-19T07:20:10;-3272.40;92.70
9448;DHT22;4762;48.128;11.376;2023-01-19T07:22:12;-3272.50;92.50
9448;DHT22;4762;48.128;11.376;2023-01-19T07:24:14;-3272.50;92.70
9448;DHT22;4762;48.128;11.376;2023-01-19T07:26:17;-3272.50;92.60
9448;DHT22;4762;48.128;11.376;2023-01-19T07:28:20;-3272.50;92.40
9448;DHT22;4762;48.128;11.376;2023-01-19T07:30:22;-3272.50;92.20
9448;DHT22;4762;48.128;11.376;2023-01-19T07:32:24;-3272.50;92.30
9448;DHT22;4762;48.128;11.376;2023-01-19T07:34:26;-3272.50;92.30
9448;DHT22;4762;48.128;11.376;2023-01-19T07:36:29;-3272.60;92.30
9448;DHT22;4762;48.128;11.376;2023-01-19T07:38:31;-3272.70;92.10
9448;DHT22;4762;48.128;11.376;2023-01-19T07:40:33;-3272.70;91.90
9448;DHT22;4762;48.128;11.376;2023-01-19T07:42:35;-3272.60;91.90
9448;DHT22;4762;48.128;11.376;2023-01-19T07:44:38;-3272.60;91.80
9448;DHT22;4762;48.128;11.376;2023-01-19T07:46:40;-3272.60;91.90
9448;DHT22;4762;48.128;11.376;2023-01-19T07:48:42;-3272.80;91.90
9448;DHT22;4762;48.128;11.376;2023-01-19T07:50:45;-3272.70;91.60
9448;DHT22;4762;48.128;11.376;2023-01-19T07:52:47;-3272.60;91.80
9448;DHT22;4762;48.128;11.376;2023-01-19T07:54:49;-3272.70;91.80
9448;DHT22;4762;48.128;11.376;2023-01-19T07:56:53;-3272.70;91.70
9448;DHT22;4762;48.128;11.376;2023-01-19T07:58:55;-3272.70;91.80
9448;DHT22;4762;48.128;11.376;2023-01-19T08:00:58;-3272.80;91.90
9448;DHT22;4762;48.128;11.376;2023-01-19T08:03:01;-3272.80;91.60
9448;DHT22;4762;48.128;11.376;2023-01-19T08:05:03;-3272.80;91.40
9448;DHT22;4762;48.128;11.376;2023-01-19T08:07:05;-3272.80;91.10
9448;DHT22;4762;48.128;11.376;2023-01-19T08:09:07;-3272.90;91.10
9448;DHT22;4762;48.128;11.376;2023-01-19T08:11:10;-3272.90;90.60
9448;DHT22;4762;48.128;11.376;2023-01-19T08:13:12;-3272.90;90.90
9448;DHT22;4762;48.128;11.376;2023-01-19T08:15:14;-3272.90;90.70
9448;DHT22;4762;48.128;11.376;2023-01-19T08:17:17;-3273.00;90.30
9448;DHT22;4762;48.128;11.376;2023-01-19T08:19:19;-3273.00;90.40
9448;DHT22;4762;48.128;11.376;2023-01-19T08:21:21;-3273.10;90.30
9448;DHT22;4762;48.128;11.376;2023-01-19T08:23:24;-3273.00;89.90
9448;DHT22;4762;48.128;11.376;2023-01-19T08:25:41;-3273.10;89.90
9448;DHT22;4762;48.128;11.376;2023-01-19T08:27:45;-3273.10;90.00
9448;DHT22;4762;48.128;11.376;2023-01-19T08:29:47;-3273.30;89.80
9448;DHT22;4762;48.128;11.376;2023-01-19T08:31:50;-3273.20;89.80
9448;DHT22;4762;48.128;11.376;2023-01-19T08:33:53;-3273.20;89.70
9448;DHT22;4762;48.128;11.376;2023-01-19T08:35:55;-3273.40;89.70
9448;DHT22;4762;48.128;11.376;2023-01-19T08:37:58;-3273.40;89.20
9448;DHT22;4762;48.128;11.376;2023-01-19T08:40:00;-3273.60;89.40
9448;DHT22;4762;48.128;11.376;2023-01-19T08:42:02;-3273.60;89.20
9448;DHT22;4762;48.128;11.376;2023-01-19T08:44:05;-3273.60;88.80
9448;DHT22;4762;48.128;11.376;2023-01-19T08:46:07;-3273.70;88.80
9448;DHT22;4762;48.128;11.376;2023-01-19T08:48:09;-3273.80;88.80
9448;DHT22;4762;48.128;11.376;2023-01-19T08:50:11;-3274.10;88.80
9448;DHT22;4762;48.128;11.376;2023-01-19T08:52:14;-3273.90;88.30
9448;DHT22;4762;48.128;11.376;2023-01-19T08:54:17;-3273.90;88.10
9448;DHT22;4762;48.128;11.376;2023-01-19T08:56:19;-3273.80;88.30
9448;DHT22;4762;48.128;11.376;2023-01-19T08:58:22;-3273.90;88.30
9448;DHT22;4762;48.128;11.376;2023-01-19T09:00:24;-3273.90;88.30
9448;DHT22;4762;48.128;11.376;2023-01-19T09:02:26;-3274.00;88.00
9448;DHT22;4762;48.128;11.376;2023-01-19T09:04:29;-3274.20;88.10
9448;DHT22;4762;48.128;11.376;2023-01-19T09:06:31;-3274.10;87.60
9448;DHT22;4762;48.128;11.376;2023-01-19T09:08:33;-3274.10;87.50
9448;DHT22;4762;48.128;11.376;2023-01-19T09:10:36;-3274.30;87.60
9448;DHT22;4762;48.128;11.376;2023-01-19T09:12:38;-3274.20;87.00
9448;DHT22;4762;48.128;11.376;2023-01-19T09:14:40;-3274.30;87.10
9448;DHT22;4762;48.128;11.376;2023-01-19T09:16:42;-3274.20;87.10
9448;DHT22;4762;48.128;11.376;2023-01-19T09:18:45;-3274.20;87.20
9448;DHT22;4762;48.128;11.376;2023-01-19T09:20:48;-3274.10;87.00
9448;DHT22;4762;48.128;11.376;2023-01-19T09:22:50;-3274.30;87.10
9448;DHT22;4762;48.128;11.376;2023-01-19T09:24:53;-3274.30;87.40
9448;DHT22;4762;48.128;11.376;2023-01-19T09:26:55;-3274.20;87.10
9448;DHT22;4762;48.128;11.376;2023-01-19T09:28:58;-3274.30;87.20
9448;DHT22;4762;48.128;11.376;2023-01-19T09:31:07;-3274.30;86.30
9448;DHT22;4762;48.128;11.376;2023-01-19T09:33:11;-3274.30;87.00
9448;DHT22;4762;48.128;11.376;2023-01-19T09:35:12;-3274.50;86.90
9448;DHT22;4762;48.128;11.376;2023-01-19T09:37:14;-3274.60;86.60
9448;DHT22;4762;48.128;11.376;2023-01-19T09:39:17;-3274.70;86.50
9448;DHT22;4762;48.128;11.376;2023-01-19T09:41:19;-3274.50;86.20
9448;DHT22;4762;48.128;11.376;2023-01-19T09:43:30;-3274.60;86.40
9448;DHT22;4762;48.128;11.376;2023-01-19T09:45:44;-3274.70;86.30
9448;DHT22;4762;48.128;11.376;2023-01-19T09:47:47;-3274.70;86.10
9448;DHT22;4762;48.128;11.376;2023-01-19T09:49:52;-3274.80;85.90
9448;DHT22;4762;48.128;11.376;2023-01-19T09:51:52;-3274.80;85.70
9448;DHT22;4762;48.128;11.376;2023-01-19T09:54:09;-3274.80;85.70
9448;DHT22;4762;48.128;11.376;2023-01-19T09:56:13;-3275.00;85.10
9448;DHT22;4762;48.128;11.376;2023-01-19T09:58:15;-3275.20;84.80
9448;DHT22;4762;48.128;11.376;2023-01-19T10:00:18;-3275.30;85.00
9448;DHT22;4762;48.128;11.376;2023-01-19T10:04:38;-3275.50;84.00
9448;DHT22;4762;48.128;11.376;2023-01-19T10:06:40;-3275.60;84.20
9448;DHT22;4762;48.128;11.376;2023-01-19T10:08:51;-3276.20;84.70
9448;DHT22;4762;48.128;11.376;2023-01-19T10:10:52;-3276.40;83.20
9448;DHT22;4762;48.128;11.376;2023-01-19T10:13:01;-3276.60;83.50
9448;DHT22;4762;48.128;11.376;2023-01-19T10:17:46;0.00;82.40
9448;DHT22;4762;48.128;11.376;2023-01-19T10:19:46;0.10;81.90
9448;DHT22;4762;48.128;11.376;2023-01-19T10:21:48;0.00;82.00
9448;DHT22;4762;48.128;11.376;2023-01-19T10:23:52;-3276.50;81.80
9448;DHT22;4762;48.128;11.376;2023-01-19T10:25:54;-3276.40;82.00
9448;DHT22;4762;48.128;11.376;2023-01-19T10:27:57;-3276.50;81.90
9448;DHT22;4762;48.128;11.376;2023-01-19T10:29:59;-3276.60;81.50
9448;DHT22;4762;48.128;11.376;2023-01-19T10:32:09;-3276.50;81.50
9448;DHT22;4762;48.128;11.376;2023-01-19T10:34:12;-3276.60;81.50
9448;DHT22;4762;48.128;11.376;2023-01-19T10:36:18;-3276.30;81.00
9448;DHT22;4762;48.128;11.376;2023-01-19T10:38:19;-3276.40;81.60
9448;DHT22;4762;48.128;11.376;2023-01-19T10:40:29;-3276.70;81.20
9448;DHT22;4762;48.128;11.376;2023-01-19T10:42:28;-3276.70;81.00
9448;DHT22;4762;48.128;11.376;2023-01-19T10:44:34;0.20;81.10
9448;DHT22;4762;48.128;11.376;2023-01-19T10:46:36;0.20;80.70
9448;DHT22;4762;48.128;11.376;2023-01-19T10:48:37;0.00;80.50
9448;DHT22;4762;48.128;11.376;2023-01-19T10:50:39;0.40;80.70
9448;DHT22;4762;48.128;11.376;2023-01-19T10:52:42;0.20;80.50
9448;DHT22;4762;48.128;11.376;2023-01-19T10:54:45;0.40;79.90
9448;DHT22;4762;48.128;11.376;2023-01-19T10:56:52;0.20;80.20
9448;DHT22;4762;48.128;11.376;2023-01-19T10:58:53;0.20;80.40
9448;DHT22;4762;48.128;11.376;2023-01-19T11:00:55;0.10;80.10
9448;DHT22;4762;48.128;11.376;2023-01-19T11:02:58;-3276.70;80.30
9448;DHT22;4762;48.128;11.376;2023-01-19T11:05:01;0.20;80.40
9448;DHT22;4762;48.128;11.376;2023-01-19T11:09:14;0.30;79.80
9448;DHT22;4762;48.128;11.376;2023-01-19T11:11:13;0.20;79.30
9448;DHT22;4762;48.128;11.376;2023-01-19T11:13:15;0.00;80.30
9448;DHT22;4762;48.128;11.376;2023-01-19T11:15:22;0.20;80.30
9448;DHT22;4762;48.128;11.376;2023-01-19T11:17:23;0.00;80.60
9448;DHT22;4762;48.128;11.376;2023-01-19T11:19:27;0.20;80.70
9448;DHT22;4762;48.128;11.376;2023-01-19T11:21:29;0.80;80.00
9448;DHT22;4762;48.128;11.376;2023-01-19T11:23:33;1.10;80.00
9448;DHT22;4762;48.128;11.376;2023-01-19T11:25:35;1.00;79.70
9448;DHT22;4762;48.128;11.376;2023-01-19T11:27:37;0.80;79.50
9448;DHT22;4762;48.128;11.376;2023-01-19T11:29:39;0.90;79.70
9448;DHT22;4762;48.128;11.376;2023-01-19T11:31:42;1.00;78.70
9448;DHT22;4762;48.128;11.376;2023-01-19T11:33:49;1.00;79.60
9448;DHT22;4762;48.128;11.376;2023-01-19T11:35:54;1.10;79.60
9448;DHT22;4762;48.128;11.376;2023-01-19T11:38:04;0.90;79.00
9448;DHT22;4762;48.128;11.376;2023-01-19T11:39:57;1.00;79.50
9448;DHT22;4762;48.128;11.376;2023-01-19T11:42:02;0.90;78.20
9448;DHT22;4762;48.128;11.376;2023-01-19T11:44:15;1.10;78.80
9448;DHT22;4762;48.128;11.376;2023-01-19T11:46:15;1.40;78.10
9448;DHT22;4762;48.128;11.376;2023-01-19T11:48:25;1.30;78.60
9448;DHT22;4762;48.128;11.376;2023-01-19T11:50:34;1.30;78.00
9448;DHT22;4762;48.128;11.376;2023-01-19T11:52:40;1.30;77.80
9448;DHT22;4762;48.128;11.376;2023-01-19T11:54:59;1.80;78.10
9448;DHT22;4762;48.128;11.376;2023-01-19T11:56:59;1.90;76.80
9448;DHT22;4762;48.128;11.376;2023-01-19T11:59:01;1.40;77.00
9448;DHT22;4762;48.128;11.376;2023-01-19T12:01:20;1.60;77.70
9448;DHT22;4762;48.128;11.376;2023-01-19T12:03:29;1.40;78.60
9448;DHT22;4762;48.128;11.376;2023-01-19T12:05:31;1.60;78.60
9448;DHT22;4762;48.128;11.376;2023-01-19T12:07:34;1.80;76.70
9448;DHT22;4762;48.128;11.376;2023-01-19T12:09:45;1.80;77.50
9448;DHT22;4762;48.128;11.376;2023-01-19T12:11:50;1.30;76.90
9448;DHT22;4762;48.128;11.376;2023-01-19T12:13:51;1.50;77.60
9448;DHT22;4762;48.128;11.376;2023-01-19T12:15:58;1.50;77.20
9448;DHT22;4762;48.128;11.376;2023-01-19T12:17:59;1.90;77.30
9448;DHT22;4762;48.128;11.376;2023-01-19T12:22:24;1.60;76.00
9448;DHT22;4762;48.128;11.376;2023-01-19T12:24:28;1.70;77.90
9448;DHT22;4762;48.128;11.376;2023-01-19T12:26:56;1.50;77.20
9448;DHT22;4762;48.128;11.376;2023-01-19T12:28:59;0.80;76.80
9448;DHT22;4762;48.128;11.376;2023-01-19T12:31:01;0.90;78.00
9448;DHT22;4762;48.128;11.376;2023-01-19T12:37:36;0.80;77.60
9448;DHT22;4762;48.128;11.376;2023-01-19T12:39:39;0.70;78.50
9448;DHT22;4762;48.128;11.376;2023-01-19T12:41:40;1.10;79.20
9448;DHT22;4762;48.128;11.376;2023-01-19T12:43:42;0.90;77.30
9448;DHT22;4762;48.128;11.376;2023-01-19T12:45:45;1.00;79.10
9448;DHT22;4762;48.128;11.376;2023-01-19T12:47:50;0.80;75.70
9448;DHT22;4762;48.128;11.376;2023-01-19T12:49:52;0.70;74.80
9448;DHT22;4762;48.128;11.376;2023-01-19T12:52:29;0.40;75.10
9448;DHT22;4762;48.128;11.376;2023-01-19T12:54:19;0.60;76.20
9448;DHT22;4762;48.128;11.376;2023-01-19T12:56:25;0.50;75.90
9448;DHT22;4762;48.128;11.376;2023-01-19T12:58:22;0.50;76.40
9448;DHT22;4762;48.128;11.376;2023-01-19T13:00:28;0.60;75.80
9448;DHT22;4762;48.128;11.376;2023-01-19T13:02:35;0.60;77.20
9448;DHT22;4762;48.128;11.376;2023-01-19T13:04:32;0.90;76.30